Main page
METAR-TAF:

METAR-TAF

Airports :

Ivalo Airport

Ivalo, Finland

latitude: 68-37N, longitude: 027-25E, elevation: 147 m

Current weather observation

The report was made 24 minutes ago, at 03:50 UTC
Wind 7 kt from the West/Southwest
Temperature -8°C
Humidity 79%
Pressure 990 hPa
Visibility 10 km or more
no clouds below 1500 m and no cumulonimbus

METAR: EFIV 250350Z AUTO 25007KT CAVOK M08/M11 Q0990

Time: 06:14 (04:14 UTC)

Forecast

The report was made 1 hour and 44 minutes ago, at 02:30 UTC
Forecast valid from 25 at 03 UTC to 25 at 12 UTC
Wind 6 kt from the West/Southwest
Visibility 10 km or more
no clouds below 1500 m and no cumulonimbus

TAF: EFIV 250230Z 2503/2512 25006KT CAVOK

Weather observations and forecasts of more than 4000 airports (METAR and TAF reports).

The available stations are represented by yellow and red dots on the map.

Hover mouse over dot to see the name of the station.

Then click to see weather observations and forecasts.

To change the map : click on the green buttons with a black cross to zoom in, on the green button with a dash to zoom out, or on the green arrows for adjacent maps.


METAR-TAF: